MSC Mara — V7NF9 — position and weather

sailwx.info

Track history (hours):
 
Tides and Currents Weather Stations Pressure Air Temp Water Temp Dewpoint Dewpoint Depression Visibility Wind Speed Wind Dir Waves Ship Positions

MSC Mara

Last reported at 2018-Apr-24 18:07 UTC. Time now 2018-Apr-25 03:03 UTC.
Position N 31°05' E 122°32'.

Length 294 m; draft 11.4 m.

Type: Ship (hazmat cat C). MMSI: 538002955.

Date/timePositionNaut miles runAvg speedWind from/ knotsBaromVisibWave heightAir tempDewpointWater temp
2018-Apr-24 18:07N 31°05' E 122°32'112.2
2018-Apr-24 18:00N 31°05' E 122°31'5 9.8
2018-Apr-24 17:30N 31°06' E 122°25'612.8
2018-Apr-24 17:00N 31°06' E 122°18'612.2
2018-Apr-24 16:30N 31°10' E 122°12'1016.1
2018-Apr-24 15:54N 31°14' E 122°02'512.6
2018-Apr-24 15:30N 31°15' E 121°56'714.8
2018-Apr-24 15:00N 31°17' E 121°48'3 0.1
2018-Apr-23 15:07N 31°19' E 121°45'1 9.2
2018-Apr-23 14:57N 31°18' E 121°46'710.1
2018-Apr-23 14:13N 31°16' E 121°55'3 8.9
2018-Apr-23 13:55N 31°15' E 121°58'4 8.4
2018-Apr-23 13:30N 31°15' E 122°02'5 8.7
2018-Apr-23 12:52N 31°13' E 122°08'4 8.5
2018-Apr-23 12:23N 31°10' E 122°12'4 9.9
2018-Apr-23 12:00N 31°08' E 122°15'4 8.8
2018-Apr-23 11:30N 31°06' E 122°20'5 8.4
2018-Apr-23 10:55N 31°06' E 122°25'  
2018-Apr-20 09:36N 31°12' E 122°44'0 0.0
2018-Apr-19 16:41N 31°12' E 122°44'0 0.0
2018-Apr-19 16:29N 31°12' E 122°44'0 0.0
2018-Apr-19 15:08N 31°12' E 122°44'0 0.0
2018-Apr-19 14:50N 31°12' E 122°44'0 0.0
2018-Apr-19 14:26N 31°12' E 122°44'0 0.0
2018-Apr-19 13:50N 31°12' E 122°44'0 0.3
2018-Apr-19 13:11N 31°12' E 122°44'0 0.2
2018-Apr-19 12:53N 31°12' E 122°44'0 0.2
2018-Apr-19 12:23N 31°12' E 122°44'0 0.3
2018-Apr-19 12:01N 31°12' E 122°44'3 5.6
2018-Apr-19 11:29N 31°14' E 122°47'510.1
2018-Apr-19 10:58N 31°19' E 122°47'510.7
2018-Apr-19 10:30N 31°24' E 122°47'611.8
2018-Apr-19 09:59N 31°30' E 122°47'611.7
2018-Apr-19 09:30N 31°36' E 122°47'11412.5
2018-Apr-19 00:21N 33°30' E 122°47'26812.5
2018-Apr-18 02:57N 37°56' E 122°00'614.4
2018-Apr-18 02:30N 37°60' E 121°54'612.1
2018-Apr-18 02:00N 38°03' E 121°47'611.6
2018-Apr-18 01:30N 38°07' E 121°41'611.8
2018-Apr-18 01:00N 38°10' E 121°35'612.1
2018-Apr-18 00:29N 38°14' E 121°29'1212.2
2018-Apr-17 23:31N 38°20' E 121°16'111.1
2018-Apr-17 23:28N 38°21' E 121°16'812.2
2018-Apr-17 22:48N 38°26' E 121°09'612.7
2018-Apr-17 22:21N 38°29' E 121°02'512.8
2018-Apr-17 21:59N 38°32' E 120°57'612.8
2018-Apr-17 21:30N 38°35' E 120°50'27 1.2
2018-Apr-16 22:23N 38°53' E 120°24'0 0.0
2018-Apr-16 21:53N 38°53' E 120°24'0 0.1
2018-Apr-16 21:29N 38°53' E 120°24'0 0.0
2018-Apr-16 20:56N 38°53' E 120°24'0 0.0
2018-Apr-16 20:29N 38°53' E 120°24'0 0.1
2018-Apr-16 19:56N 38°53' E 120°24'0 0.0
2018-Apr-16 19:29N 38°53' E 120°24'0 0.0
2018-Apr-15 22:02N 38°53' E 120°24'0 0.0
2018-Apr-15 21:53N 38°53' E 120°24'  
Track history (hours):
 
Tides and Currents Weather Stations Pressure Air Temp Water Temp Dewpoint Dewpoint Depression Visibility Wind Speed Wind Dir Waves Ship Positions

MSC Mara

Last reported at 2018-Apr-24 18:07 UTC. Time now 2018-Apr-25 03:03 UTC.
Position N 31°05' E 122°32'.

Length 294 m; draft 11.4 m.

Type: Ship (hazmat cat C). MMSI: 538002955.

Date/timePositionNaut miles runAvg speedWind from/ knotsBaromVisibWave heightAir tempDewpointWater temp
2018-Apr-24 18:07N 31°05' E 122°32'112.2
2018-Apr-24 18:00N 31°05' E 122°31'5 9.8
2018-Apr-24 17:30N 31°06' E 122°25'612.8
2018-Apr-24 17:00N 31°06' E 122°18'612.2
2018-Apr-24 16:30N 31°10' E 122°12'1016.1
2018-Apr-24 15:54N 31°14' E 122°02'512.6
2018-Apr-24 15:30N 31°15' E 121°56'714.8
2018-Apr-24 15:00N 31°17' E 121°48'3 0.1
2018-Apr-23 15:07N 31°19' E 121°45'1 9.2
2018-Apr-23 14:57N 31°18' E 121°46'710.1
2018-Apr-23 14:13N 31°16' E 121°55'3 8.9
2018-Apr-23 13:55N 31°15' E 121°58'4 8.4
2018-Apr-23 13:30N 31°15' E 122°02'5 8.7
2018-Apr-23 12:52N 31°13' E 122°08'4 8.5
2018-Apr-23 12:23N 31°10' E 122°12'4 9.9
2018-Apr-23 12:00N 31°08' E 122°15'4 8.8
2018-Apr-23 11:30N 31°06' E 122°20'5 8.4
2018-Apr-23 10:55N 31°06' E 122°25'  
2018-Apr-20 09:36N 31°12' E 122°44'0 0.0
2018-Apr-19 16:41N 31°12' E 122°44'0 0.0
2018-Apr-19 16:29N 31°12' E 122°44'0 0.0
2018-Apr-19 15:08N 31°12' E 122°44'0 0.0
2018-Apr-19 14:50N 31°12' E 122°44'0 0.0
2018-Apr-19 14:26N 31°12' E 122°44'0 0.0
2018-Apr-19 13:50N 31°12' E 122°44'0 0.3
2018-Apr-19 13:11N 31°12' E 122°44'0 0.2
2018-Apr-19 12:53N 31°12' E 122°44'0 0.2
2018-Apr-19 12:23N 31°12' E 122°44'0 0.3
2018-Apr-19 12:01N 31°12' E 122°44'3 5.6
2018-Apr-19 11:29N 31°14' E 122°47'510.1
2018-Apr-19 10:58N 31°19' E 122°47'510.7
2018-Apr-19 10:30N 31°24' E 122°47'611.8
2018-Apr-19 09:59N 31°30' E 122°47'611.7
2018-Apr-19 09:30N 31°36' E 122°47'11412.5
2018-Apr-19 00:21N 33°30' E 122°47'26812.5
2018-Apr-18 02:57N 37°56' E 122°00'614.4
2018-Apr-18 02:30N 37°60' E 121°54'612.1
2018-Apr-18 02:00N 38°03' E 121°47'611.6
2018-Apr-18 01:30N 38°07' E 121°41'611.8
2018-Apr-18 01:00N 38°10' E 121°35'612.1
2018-Apr-18 00:29N 38°14' E 121°29'1212.2
2018-Apr-17 23:31N 38°20' E 121°16'111.1
2018-Apr-17 23:28N 38°21' E 121°16'812.2
2018-Apr-17 22:48N 38°26' E 121°09'612.7
2018-Apr-17 22:21N 38°29' E 121°02'512.8
2018-Apr-17 21:59N 38°32' E 120°57'612.8
2018-Apr-17 21:30N 38°35' E 120°50'27 1.2
2018-Apr-16 22:23N 38°53' E 120°24'0 0.0
2018-Apr-16 21:53N 38°53' E 120°24'0 0.1
2018-Apr-16 21:29N 38°53' E 120°24'0 0.0
2018-Apr-16 20:56N 38°53' E 120°24'0 0.0
2018-Apr-16 20:29N 38°53' E 120°24'0 0.1
2018-Apr-16 19:56N 38°53' E 120°24'0 0.0
2018-Apr-16 19:29N 38°53' E 120°24'0 0.0
2018-Apr-15 22:02N 38°53' E 120°24'0 0.0
2018-Apr-15 21:53N 38°53' E 120°24'  

Dump ship's entire track history